sensor_id;sensor_type;location;lat;lon;timestamp;P1;durP1;ratioP1;P2;durP2;ratioP2
17145;SDS011;8688;54.444;18.444;2023-08-01T00:00:49;4.97;;;3.75;;
17145;SDS011;8688;54.444;18.444;2023-08-01T00:03:17;6.32;;;4.13;;
17145;SDS011;8688;54.444;18.444;2023-08-01T00:05:44;5.68;;;4.00;;
17145;SDS011;8688;54.444;18.444;2023-08-01T00:08:12;5.63;;;3.63;;
17145;SDS011;8688;54.444;18.444;2023-08-01T00:10:40;6.82;;;3.70;;
17145;SDS011;8688;54.444;18.444;2023-08-01T00:13:08;7.60;;;3.60;;
17145;SDS011;8688;54.444;18.444;2023-08-01T00:15:37;7.13;;;3.97;;
17145;SDS011;8688;54.444;18.444;2023-08-01T00:18:05;5.65;;;3.45;;
17145;SDS011;8688;54.444;18.444;2023-08-01T00:20:34;6.53;;;3.85;;
17145;SDS011;8688;54.444;18.444;2023-08-01T00:23:02;5.63;;;3.50;;
17145;SDS011;8688;54.444;18.444;2023-08-01T00:25:31;5.68;;;3.53;;
17145;SDS011;8688;54.444;18.444;2023-08-01T00:27:59;6.20;;;3.70;;
17145;SDS011;8688;54.444;18.444;2023-08-01T00:30:27;6.22;;;3.33;;
17145;SDS011;8688;54.444;18.444;2023-08-01T00:32:56;5.78;;;3.45;;
17145;SDS011;8688;54.444;18.444;2023-08-01T00:35:23;6.32;;;3.60;;
17145;SDS011;8688;54.444;18.444;2023-08-01T00:37:51;7.65;;;3.75;;
17145;SDS011;8688;54.444;18.444;2023-08-01T00:40:18;5.25;;;3.80;;
17145;SDS011;8688;54.444;18.444;2023-08-01T00:42:46;6.75;;;3.95;;
17145;SDS011;8688;54.444;18.444;2023-08-01T00:45:14;4.88;;;3.25;;
17145;SDS011;8688;54.444;18.444;2023-08-01T00:47:42;7.43;;;3.42;;
17145;SDS011;8688;54.444;18.444;2023-08-01T00:50:13;5.97;;;3.90;;
17145;SDS011;8688;54.444;18.444;2023-08-01T00:52:41;5.47;;;3.80;;
17145;SDS011;8688;54.444;18.444;2023-08-01T00:55:10;6.30;;;3.33;;
17145;SDS011;8688;54.444;18.444;2023-08-01T00:57:37;6.43;;;4.07;;
17145;SDS011;8688;54.444;18.444;2023-08-01T01:00:06;5.82;;;3.67;;
17145;SDS011;8688;54.444;18.444;2023-08-01T01:02:35;5.45;;;3.30;;
17145;SDS011;8688;54.444;18.444;2023-08-01T01:05:04;5.30;;;3.60;;
17145;SDS011;8688;54.444;18.444;2023-08-01T01:07:34;8.82;;;2.88;;
17145;SDS011;8688;54.444;18.444;2023-08-01T01:10:03;7.70;;;4.30;;
17145;SDS011;8688;54.444;18.444;2023-08-01T01:12:33;6.55;;;3.55;;
17145;SDS011;8688;54.444;18.444;2023-08-01T01:15:00;6.95;;;3.50;;
17145;SDS011;8688;54.444;18.444;2023-08-01T01:17:30;4.18;;;3.05;;
17145;SDS011;8688;54.444;18.444;2023-08-01T01:19:58;5.13;;;3.22;;
17145;SDS011;8688;54.444;18.444;2023-08-01T01:22:28;4.60;;;2.95;;
17145;SDS011;8688;54.444;18.444;2023-08-01T01:24:57;8.27;;;3.03;;
17145;SDS011;8688;54.444;18.444;2023-08-01T01:27:27;4.07;;;2.90;;
17145;SDS011;8688;54.444;18.444;2023-08-01T01:29:56;4.88;;;2.90;;
17145;SDS011;8688;54.444;18.444;2023-08-01T01:32:25;4.05;;;2.85;;
17145;SDS011;8688;54.444;18.444;2023-08-01T01:34:53;3.88;;;2.72;;
17145;SDS011;8688;54.444;18.444;2023-08-01T01:37:21;3.97;;;3.03;;
17145;SDS011;8688;54.444;18.444;2023-08-01T01:39:50;5.55;;;2.78;;
17145;SDS011;8688;54.444;18.444;2023-08-01T01:42:18;3.53;;;2.50;;
17145;SDS011;8688;54.444;18.444;2023-08-01T01:44:45;8.25;;;2.53;;
17145;SDS011;8688;54.444;18.444;2023-08-01T01:47:13;4.00;;;2.70;;
17145;SDS011;8688;54.444;18.444;2023-08-01T01:49:40;3.60;;;2.50;;
17145;SDS011;8688;54.444;18.444;2023-08-01T01:52:08;3.53;;;2.55;;
17145;SDS011;8688;54.444;18.444;2023-08-01T01:54:35;3.20;;;2.25;;
17145;SDS011;8688;54.444;18.444;2023-08-01T01:57:05;4.60;;;2.85;;
17145;SDS011;8688;54.444;18.444;2023-08-01T01:59:32;3.15;;;2.17;;
17145;SDS011;8688;54.444;18.444;2023-08-01T02:02:00;3.65;;;2.35;;
17145;SDS011;8688;54.444;18.444;2023-08-01T02:04:29;4.80;;;2.63;;
17145;SDS011;8688;54.444;18.444;2023-08-01T02:06:57;6.38;;;2.60;;
17145;SDS011;8688;54.444;18.444;2023-08-01T02:09:24;5.55;;;2.45;;
17145;SDS011;8688;54.444;18.444;2023-08-01T02:11:52;4.63;;;2.70;;
17145;SDS011;8688;54.444;18.444;2023-08-01T02:14:20;4.57;;;3.00;;
17145;SDS011;8688;54.444;18.444;2023-08-01T02:16:48;3.85;;;2.88;;
17145;SDS011;8688;54.444;18.444;2023-08-01T02:19:15;4.10;;;2.80;;
17145;SDS011;8688;54.444;18.444;2023-08-01T02:21:43;4.15;;;2.90;;
17145;SDS011;8688;54.444;18.444;2023-08-01T02:24:10;4.38;;;2.90;;
17145;SDS011;8688;54.444;18.444;2023-08-01T02:26:38;5.75;;;2.90;;
17145;SDS011;8688;54.444;18.444;2023-08-01T02:29:05;3.72;;;2.80;;
17145;SDS011;8688;54.444;18.444;2023-08-01T02:31:34;4.43;;;2.88;;
17145;SDS011;8688;54.444;18.444;2023-08-01T02:34:02;4.35;;;2.97;;
17145;SDS011;8688;54.444;18.444;2023-08-01T02:36:29;5.55;;;3.00;;
17145;SDS011;8688;54.444;18.444;2023-08-01T02:38:57;3.88;;;2.70;;
17145;SDS011;8688;54.444;18.444;2023-08-01T02:41:24;6.10;;;3.40;;
17145;SDS011;8688;54.444;18.444;2023-08-01T02:43:52;6.15;;;3.17;;
17145;SDS011;8688;54.444;18.444;2023-08-01T02:46:19;7.40;;;3.13;;
17145;SDS011;8688;54.444;18.444;2023-08-01T02:48:48;5.72;;;3.13;;
17145;SDS011;8688;54.444;18.444;2023-08-01T02:51:16;5.53;;;3.55;;
17145;SDS011;8688;54.444;18.444;2023-08-01T02:53:44;4.68;;;3.10;;
17145;SDS011;8688;54.444;18.444;2023-08-01T02:56:11;5.38;;;2.80;;
17145;SDS011;8688;54.444;18.444;2023-08-01T02:58:39;4.32;;;3.15;;
17145;SDS011;8688;54.444;18.444;2023-08-01T03:01:07;4.65;;;3.25;;
17145;SDS011;8688;54.444;18.444;2023-08-01T03:03:35;9.98;;;3.58;;
17145;SDS011;8688;54.444;18.444;2023-08-01T03:06:04;3.92;;;3.00;;
17145;SDS011;8688;54.444;18.444;2023-08-01T03:08:32;7.05;;;3.20;;
17145;SDS011;8688;54.444;18.444;2023-08-01T03:11:00;7.20;;;3.50;;
17145;SDS011;8688;54.444;18.444;2023-08-01T03:13:28;5.30;;;3.10;;
17145;SDS011;8688;54.444;18.444;2023-08-01T03:15:56;5.38;;;3.08;;
17145;SDS011;8688;54.444;18.444;2023-08-01T03:18:23;5.13;;;3.08;;
17145;SDS011;8688;54.444;18.444;2023-08-01T03:20:51;5.00;;;2.97;;
17145;SDS011;8688;54.444;18.444;2023-08-01T03:23:20;5.13;;;3.33;;
17145;SDS011;8688;54.444;18.444;2023-08-01T03:25:48;7.82;;;3.15;;
17145;SDS011;8688;54.444;18.444;2023-08-01T03:28:15;6.60;;;3.30;;
17145;SDS011;8688;54.444;18.444;2023-08-01T03:30:43;6.80;;;3.50;;
17145;SDS011;8688;54.444;18.444;2023-08-01T03:33:11;9.27;;;3.03;;
17145;SDS011;8688;54.444;18.444;2023-08-01T03:35:38;6.45;;;3.25;;
17145;SDS011;8688;54.444;18.444;2023-08-01T03:38:06;8.57;;;3.50;;
17145;SDS011;8688;54.444;18.444;2023-08-01T03:40:35;7.18;;;3.58;;
17145;SDS011;8688;54.444;18.444;2023-08-01T03:43:03;7.82;;;3.55;;
17145;SDS011;8688;54.444;18.444;2023-08-01T03:45:30;6.50;;;3.55;;
17145;SDS011;8688;54.444;18.444;2023-08-01T03:47:58;5.43;;;3.40;;
17145;SDS011;8688;54.444;18.444;2023-08-01T03:50:25;5.32;;;3.35;;
17145;SDS011;8688;54.444;18.444;2023-08-01T03:52:53;6.95;;;3.22;;
17145;SDS011;8688;54.444;18.444;2023-08-01T03:55:20;6.07;;;3.28;;
17145;SDS011;8688;54.444;18.444;2023-08-01T03:57:49;5.22;;;2.92;;
17145;SDS011;8688;54.444;18.444;2023-08-01T04:00:17;6.40;;;3.35;;
17145;SDS011;8688;54.444;18.444;2023-08-01T04:02:45;6.13;;;3.30;;
17145;SDS011;8688;54.444;18.444;2023-08-01T04:05:12;7.88;;;3.25;;
17145;SDS011;8688;54.444;18.444;2023-08-01T04:07:40;6.78;;;3.45;;
17145;SDS011;8688;54.444;18.444;2023-08-01T04:10:08;5.95;;;3.33;;
17145;SDS011;8688;54.444;18.444;2023-08-01T04:12:36;6.20;;;3.47;;
17145;SDS011;8688;54.444;18.444;2023-08-01T04:15:06;7.18;;;3.38;;
17145;SDS011;8688;54.444;18.444;2023-08-01T04:17:34;8.18;;;3.30;;
17145;SDS011;8688;54.444;18.444;2023-08-01T04:20:01;6.93;;;3.80;;
17145;SDS011;8688;54.444;18.444;2023-08-01T04:22:29;7.65;;;3.55;;
17145;SDS011;8688;54.444;18.444;2023-08-01T04:24:57;7.15;;;3.40;;
17145;SDS011;8688;54.444;18.444;2023-08-01T04:27:24;6.82;;;3.28;;
17145;SDS011;8688;54.444;18.444;2023-08-01T04:29:52;4.55;;;2.92;;
17145;SDS011;8688;54.444;18.444;2023-08-01T04:32:21;5.70;;;3.22;;
17145;SDS011;8688;54.444;18.444;2023-08-01T04:34:49;6.57;;;3.30;;
17145;SDS011;8688;54.444;18.444;2023-08-01T04:37:16;6.80;;;3.20;;
17145;SDS011;8688;54.444;18.444;2023-08-01T04:39:45;7.93;;;3.78;;
17145;SDS011;8688;54.444;18.444;2023-08-01T04:42:13;6.85;;;3.83;;
17145;SDS011;8688;54.444;18.444;2023-08-01T04:44:41;6.90;;;3.30;;
17145;SDS011;8688;54.444;18.444;2023-08-01T04:47:08;7.50;;;3.30;;
17145;SDS011;8688;54.444;18.444;2023-08-01T04:49:37;5.60;;;3.42;;
17145;SDS011;8688;54.444;18.444;2023-08-01T04:52:05;7.28;;;3.47;;
17145;SDS011;8688;54.444;18.444;2023-08-01T04:54:33;5.75;;;3.03;;
17145;SDS011;8688;54.444;18.444;2023-08-01T04:57:01;6.65;;;3.40;;
17145;SDS011;8688;54.444;18.444;2023-08-01T04:59:29;7.25;;;3.58;;
17145;SDS011;8688;54.444;18.444;2023-08-01T05:01:56;9.73;;;3.20;;
17145;SDS011;8688;54.444;18.444;2023-08-01T05:04:24;5.13;;;3.33;;
17145;SDS011;8688;54.444;18.444;2023-08-01T05:06:53;6.05;;;3.35;;
17145;SDS011;8688;54.444;18.444;2023-08-01T05:09:21;7.78;;;3.40;;
17145;SDS011;8688;54.444;18.444;2023-08-01T05:11:48;5.32;;;3.03;;
17145;SDS011;8688;54.444;18.444;2023-08-01T05:14:16;4.95;;;3.65;;
17145;SDS011;8688;54.444;18.444;2023-08-01T05:16:43;5.47;;;3.45;;
17145;SDS011;8688;54.444;18.444;2023-08-01T05:19:12;7.10;;;3.42;;
17145;SDS011;8688;54.444;18.444;2023-08-01T05:21:42;7.82;;;3.35;;
17145;SDS011;8688;54.444;18.444;2023-08-01T05:24:13;6.93;;;3.25;;
17145;SDS011;8688;54.444;18.444;2023-08-01T05:26:40;6.53;;;3.60;;
17145;SDS011;8688;54.444;18.444;2023-08-01T05:29:08;8.00;;;3.45;;
17145;SDS011;8688;54.444;18.444;2023-08-01T05:31:35;5.95;;;3.63;;
17145;SDS011;8688;54.444;18.444;2023-08-01T05:34:03;6.05;;;4.28;;
17145;SDS011;8688;54.444;18.444;2023-08-01T05:36:30;6.88;;;3.58;;
17145;SDS011;8688;54.444;18.444;2023-08-01T05:38:58;7.88;;;3.95;;
17145;SDS011;8688;54.444;18.444;2023-08-01T05:41:27;5.70;;;3.55;;
17145;SDS011;8688;54.444;18.444;2023-08-01T05:43:55;7.55;;;4.30;;
17145;SDS011;8688;54.444;18.444;2023-08-01T05:46:23;8.98;;;4.00;;
17145;SDS011;8688;54.444;18.444;2023-08-01T05:48:50;8.18;;;4.05;;
17145;SDS011;8688;54.444;18.444;2023-08-01T05:51:18;6.97;;;3.95;;
17145;SDS011;8688;54.444;18.444;2023-08-01T05:53:45;6.53;;;3.95;;
17145;SDS011;8688;54.444;18.444;2023-08-01T05:56:13;7.75;;;3.60;;
17145;SDS011;8688;54.444;18.444;2023-08-01T05:58:42;7.70;;;3.85;;
17145;SDS011;8688;54.444;18.444;2023-08-01T06:01:10;4.97;;;3.58;;
17145;SDS011;8688;54.444;18.444;2023-08-01T06:03:38;8.35;;;4.20;;
17145;SDS011;8688;54.444;18.444;2023-08-01T06:06:05;7.45;;;4.00;;
17145;SDS011;8688;54.444;18.444;2023-08-01T06:08:36;7.00;;;4.30;;
17145;SDS011;8688;54.444;18.444;2023-08-01T06:11:03;6.15;;;3.90;;
17145;SDS011;8688;54.444;18.444;2023-08-01T06:13:37;6.75;;;4.05;;
17145;SDS011;8688;54.444;18.444;2023-08-01T06:16:06;7.85;;;4.13;;
17145;SDS011;8688;54.444;18.444;2023-08-01T06:18:34;7.28;;;4.30;;
17145;SDS011;8688;54.444;18.444;2023-08-01T06:21:01;8.48;;;4.10;;
17145;SDS011;8688;54.444;18.444;2023-08-01T06:23:29;7.50;;;4.40;;
17145;SDS011;8688;54.444;18.444;2023-08-01T06:25:57;8.63;;;3.80;;
17145;SDS011;8688;54.444;18.444;2023-08-01T06:28:25;8.07;;;4.13;;
17145;SDS011;8688;54.444;18.444;2023-08-01T06:30:52;6.45;;;4.32;;
17145;SDS011;8688;54.444;18.444;2023-08-01T06:33:21;8.95;;;4.25;;
17145;SDS011;8688;54.444;18.444;2023-08-01T06:35:49;8.10;;;4.10;;
17145;SDS011;8688;54.444;18.444;2023-08-01T06:38:17;6.70;;;3.88;;
17145;SDS011;8688;54.444;18.444;2023-08-01T06:40:45;8.02;;;4.55;;
17145;SDS011;8688;54.444;18.444;2023-08-01T06:43:12;6.60;;;3.60;;
17145;SDS011;8688;54.444;18.444;2023-08-01T06:45:43;7.93;;;3.97;;
17145;SDS011;8688;54.444;18.444;2023-08-01T06:48:11;7.40;;;4.53;;
17145;SDS011;8688;54.444;18.444;2023-08-01T06:50:40;5.97;;;3.67;;
17145;SDS011;8688;54.444;18.444;2023-08-01T06:53:08;6.90;;;3.95;;
17145;SDS011;8688;54.444;18.444;2023-08-01T06:55:36;6.85;;;4.15;;
17145;SDS011;8688;54.444;18.444;2023-08-01T06:58:05;6.90;;;3.72;;
17145;SDS011;8688;54.444;18.444;2023-08-01T07:00:32;6.45;;;4.00;;
17145;SDS011;8688;54.444;18.444;2023-08-01T07:03:00;6.40;;;3.50;;
17145;SDS011;8688;54.444;18.444;2023-08-01T07:05:28;9.07;;;3.97;;
17145;SDS011;8688;54.444;18.444;2023-08-01T07:07:58;6.38;;;4.07;;
17145;SDS011;8688;54.444;18.444;2023-08-01T07:10:25;6.70;;;3.53;;
17145;SDS011;8688;54.444;18.444;2023-08-01T07:12:56;7.60;;;4.00;;
17145;SDS011;8688;54.444;18.444;2023-08-01T07:15:23;5.28;;;3.55;;
17145;SDS011;8688;54.444;18.444;2023-08-01T07:17:51;5.97;;;3.72;;
17145;SDS011;8688;54.444;18.444;2023-08-01T07:20:19;7.57;;;3.70;;
17145;SDS011;8688;54.444;18.444;2023-08-01T07:22:47;8.20;;;4.30;;
17145;SDS011;8688;54.444;18.444;2023-08-01T07:25:16;7.55;;;3.97;;
17145;SDS011;8688;54.444;18.444;2023-08-01T07:27:44;8.48;;;3.72;;
17145;SDS011;8688;54.444;18.444;2023-08-01T07:30:12;10.00;;;4.18;;
17145;SDS011;8688;54.444;18.444;2023-08-01T07:32:40;7.43;;;4.10;;
17145;SDS011;8688;54.444;18.444;2023-08-01T07:35:08;7.32;;;4.05;;
17145;SDS011;8688;54.444;18.444;2023-08-01T07:37:36;6.60;;;4.00;;
17145;SDS011;8688;54.444;18.444;2023-08-01T07:40:04;7.07;;;4.05;;
17145;SDS011;8688;54.444;18.444;2023-08-01T07:42:34;7.40;;;4.03;;
17145;SDS011;8688;54.444;18.444;2023-08-01T07:45:01;6.75;;;3.85;;
17145;SDS011;8688;54.444;18.444;2023-08-01T07:47:29;5.88;;;4.13;;
17145;SDS011;8688;54.444;18.444;2023-08-01T07:49:57;8.45;;;4.00;;
17145;SDS011;8688;54.444;18.444;2023-08-01T07:52:24;5.85;;;3.85;;
17145;SDS011;8688;54.444;18.444;2023-08-01T07:54:52;7.68;;;3.88;;
17145;SDS011;8688;54.444;18.444;2023-08-01T07:57:22;6.72;;;4.10;;
17145;SDS011;8688;54.444;18.444;2023-08-01T07:59:51;5.53;;;3.65;;
17145;SDS011;8688;54.444;18.444;2023-08-01T08:02:19;5.72;;;4.10;;
17145;SDS011;8688;54.444;18.444;2023-08-01T08:04:47;5.60;;;3.78;;
17145;SDS011;8688;54.444;18.444;2023-08-01T08:07:14;7.00;;;3.90;;
17145;SDS011;8688;54.444;18.444;2023-08-01T08:09:41;6.00;;;3.65;;
17145;SDS011;8688;54.444;18.444;2023-08-01T08:12:09;6.43;;;3.80;;
17145;SDS011;8688;54.444;18.444;2023-08-01T08:14:36;7.05;;;4.45;;
17145;SDS011;8688;54.444;18.444;2023-08-01T08:17:08;6.85;;;3.70;;
17145;SDS011;8688;54.444;18.444;2023-08-01T08:19:35;6.47;;;4.10;;
17145;SDS011;8688;54.444;18.444;2023-08-01T08:22:03;6.38;;;3.65;;
17145;SDS011;8688;54.444;18.444;2023-08-01T08:24:31;6.28;;;3.42;;
17145;SDS011;8688;54.444;18.444;2023-08-01T08:26:59;7.63;;;3.83;;
17145;SDS011;8688;54.444;18.444;2023-08-01T08:29:26;5.10;;;3.90;;
17145;SDS011;8688;54.444;18.444;2023-08-01T08:31:54;6.97;;;4.05;;
17145;SDS011;8688;54.444;18.444;2023-08-01T08:34:23;7.75;;;4.13;;
17145;SDS011;8688;54.444;18.444;2023-08-01T08:36:53;5.32;;;3.78;;
17145;SDS011;8688;54.444;18.444;2023-08-01T08:39:21;6.80;;;3.92;;
17145;SDS011;8688;54.444;18.444;2023-08-01T08:41:49;5.85;;;3.70;;
17145;SDS011;8688;54.444;18.444;2023-08-01T08:44:20;6.20;;;3.85;;
17145;SDS011;8688;54.444;18.444;2023-08-01T08:46:50;5.95;;;3.55;;
17145;SDS011;8688;54.444;18.444;2023-08-01T08:49:19;4.57;;;3.20;;
17145;SDS011;8688;54.444;18.444;2023-08-01T08:51:53;3.15;;;2.78;;
17145;SDS011;8688;54.444;18.444;2023-08-01T08:54:21;4.22;;;3.05;;
17145;SDS011;8688;54.444;18.444;2023-08-01T08:56:50;4.60;;;3.10;;
17145;SDS011;8688;54.444;18.444;2023-08-01T08:59:20;3.45;;;3.15;;
17145;SDS011;8688;54.444;18.444;2023-08-01T09:01:49;3.80;;;3.25;;
17145;SDS011;8688;54.444;18.444;2023-08-01T09:04:17;4.85;;;3.20;;
17145;SDS011;8688;54.444;18.444;2023-08-01T09:06:45;6.70;;;3.20;;
17145;SDS011;8688;54.444;18.444;2023-08-01T09:09:16;3.47;;;2.70;;
17145;SDS011;8688;54.444;18.444;2023-08-01T09:11:45;2.50;;;2.30;;
17145;SDS011;8688;54.444;18.444;2023-08-01T09:14:13;3.15;;;2.40;;
17145;SDS011;8688;54.444;18.444;2023-08-01T09:16:41;5.57;;;2.88;;
17145;SDS011;8688;54.444;18.444;2023-08-01T09:19:10;4.88;;;3.00;;
17145;SDS011;8688;54.444;18.444;2023-08-01T09:21:38;3.53;;;2.75;;
17145;SDS011;8688;54.444;18.444;2023-08-01T09:24:09;2.58;;;2.38;;
17145;SDS011;8688;54.444;18.444;2023-08-01T09:26:40;4.95;;;2.75;;
17145;SDS011;8688;54.444;18.444;2023-08-01T09:29:08;2.80;;;2.50;;
17145;SDS011;8688;54.444;18.444;2023-08-01T09:31:36;4.63;;;2.50;;
17145;SDS011;8688;54.444;18.444;2023-08-01T09:34:05;4.25;;;2.50;;
17145;SDS011;8688;54.444;18.444;2023-08-01T09:36:44;3.53;;;2.40;;
17145;SDS011;8688;54.444;18.444;2023-08-01T09:39:15;4.78;;;2.38;;
17145;SDS011;8688;54.444;18.444;2023-08-01T09:41:46;3.10;;;2.38;;
17145;SDS011;8688;54.444;18.444;2023-08-01T09:44:22;4.30;;;2.60;;
17145;SDS011;8688;54.444;18.444;2023-08-01T09:46:55;7.63;;;2.70;;
17145;SDS011;8688;54.444;18.444;2023-08-01T09:49:25;3.20;;;2.33;;
17145;SDS011;8688;54.444;18.444;2023-08-01T09:51:53;2.50;;;2.30;;
17145;SDS011;8688;54.444;18.444;2023-08-01T09:54:23;2.78;;;2.45;;
17145;SDS011;8688;54.444;18.444;2023-08-01T09:56:54;3.13;;;2.72;;
17145;SDS011;8688;54.444;18.444;2023-08-01T09:59:23;3.65;;;2.70;;
17145;SDS011;8688;54.444;18.444;2023-08-01T10:01:51;3.28;;;2.80;;
17145;SDS011;8688;54.444;18.444;2023-08-01T10:04:20;3.00;;;2.67;;
17145;SDS011;8688;54.444;18.444;2023-08-01T10:06:53;4.95;;;2.90;;
17145;SDS011;8688;54.444;18.444;2023-08-01T10:09:24;3.30;;;2.97;;
17145;SDS011;8688;54.444;18.444;2023-08-01T10:11:54;4.03;;;2.92;;
17145;SDS011;8688;54.444;18.444;2023-08-01T10:14:24;4.47;;;3.20;;
17145;SDS011;8688;54.444;18.444;2023-08-01T10:16:52;6.75;;;3.35;;
17145;SDS011;8688;54.444;18.444;2023-08-01T10:19:21;4.20;;;3.20;;
17145;SDS011;8688;54.444;18.444;2023-08-01T10:21:48;4.22;;;3.50;;
17145;SDS011;8688;54.444;18.444;2023-08-01T10:24:17;7.57;;;3.80;;
17145;SDS011;8688;54.444;18.444;2023-08-01T10:26:46;5.80;;;4.03;;
17145;SDS011;8688;54.444;18.444;2023-08-01T10:29:15;5.40;;;3.92;;
17145;SDS011;8688;54.444;18.444;2023-08-01T10:31:50;5.50;;;4.40;;
17145;SDS011;8688;54.444;18.444;2023-08-01T10:34:18;5.68;;;4.20;;
17145;SDS011;8688;54.444;18.444;2023-08-01T10:36:56;4.97;;;4.32;;
17145;SDS011;8688;54.444;18.444;2023-08-01T10:39:25;8.32;;;4.10;;
17145;SDS011;8688;54.444;18.444;2023-08-01T10:41:57;5.78;;;4.72;;
17145;SDS011;8688;54.444;18.444;2023-08-01T10:44:27;5.50;;;4.40;;
17145;SDS011;8688;54.444;18.444;2023-08-01T10:46:57;6.15;;;4.75;;
17145;SDS011;8688;54.444;18.444;2023-08-01T10:49:33;7.43;;;4.55;;
17145;SDS011;8688;54.444;18.444;2023-08-01T10:52:01;4.90;;;4.20;;
17145;SDS011;8688;54.444;18.444;2023-08-01T10:54:31;6.13;;;4.53;;
17145;SDS011;8688;54.444;18.444;2023-08-01T10:57:03;5.20;;;4.20;;
17145;SDS011;8688;54.444;18.444;2023-08-01T10:59:34;7.28;;;4.50;;
17145;SDS011;8688;54.444;18.444;2023-08-01T11:02:02;5.72;;;4.13;;
17145;SDS011;8688;54.444;18.444;2023-08-01T11:04:29;7.05;;;4.70;;
17145;SDS011;8688;54.444;18.444;2023-08-01T11:06:57;6.28;;;4.60;;
17145;SDS011;8688;54.444;18.444;2023-08-01T11:09:25;5.82;;;4.20;;
17145;SDS011;8688;54.444;18.444;2023-08-01T11:11:54;5.95;;;4.63;;
17145;SDS011;8688;54.444;18.444;2023-08-01T11:14:23;6.10;;;4.05;;
17145;SDS011;8688;54.444;18.444;2023-08-01T11:16:55;7.03;;;3.75;;
17145;SDS011;8688;54.444;18.444;2023-08-01T11:19:25;5.78;;;4.10;;
17145;SDS011;8688;54.444;18.444;2023-08-01T11:21:54;4.72;;;3.38;;
17145;SDS011;8688;54.444;18.444;2023-08-01T11:24:23;4.65;;;3.70;;
17145;SDS011;8688;54.444;18.444;2023-08-01T11:26:52;4.45;;;3.70;;
17145;SDS011;8688;54.444;18.444;2023-08-01T11:29:20;3.90;;;3.30;;
17145;SDS011;8688;54.444;18.444;2023-08-01T11:31:52;4.35;;;3.75;;
17145;SDS011;8688;54.444;18.444;2023-08-01T11:34:22;6.35;;;4.00;;
17145;SDS011;8688;54.444;18.444;2023-08-01T11:36:50;4.90;;;3.30;;
17145;SDS011;8688;54.444;18.444;2023-08-01T11:39:18;3.92;;;3.53;;
17145;SDS011;8688;54.444;18.444;2023-08-01T11:41:47;5.30;;;4.30;;
17145;SDS011;8688;54.444;18.444;2023-08-01T11:44:15;6.05;;;3.70;;
17145;SDS011;8688;54.444;18.444;2023-08-01T11:46:42;4.55;;;3.67;;
17145;SDS011;8688;54.444;18.444;2023-08-01T11:49:13;5.28;;;3.67;;
17145;SDS011;8688;54.444;18.444;2023-08-01T11:51:41;6.53;;;3.72;;
17145;SDS011;8688;54.444;18.444;2023-08-01T11:54:11;5.60;;;3.78;;
17145;SDS011;8688;54.444;18.444;2023-08-01T11:56:39;5.85;;;3.42;;
17145;SDS011;8688;54.444;18.444;2023-08-01T11:59:08;4.70;;;3.92;;
17145;SDS011;8688;54.444;18.444;2023-08-01T12:01:40;6.38;;;4.43;;
17145;SDS011;8688;54.444;18.444;2023-08-01T12:04:08;5.47;;;3.72;;
17145;SDS011;8688;54.444;18.444;2023-08-01T12:06:38;4.57;;;3.70;;
17145;SDS011;8688;54.444;18.444;2023-08-01T12:09:06;3.70;;;3.30;;
17145;SDS011;8688;54.444;18.444;2023-08-01T12:11:37;4.43;;;3.30;;
17145;SDS011;8688;54.444;18.444;2023-08-01T12:14:08;3.85;;;3.13;;
17145;SDS011;8688;54.444;18.444;2023-08-01T12:16:38;5.82;;;3.53;;
17145;SDS011;8688;54.444;18.444;2023-08-01T12:19:07;4.20;;;3.35;;
17145;SDS011;8688;54.444;18.444;2023-08-01T12:21:35;3.17;;;2.63;;
17145;SDS011;8688;54.444;18.444;2023-08-01T12:24:05;4.45;;;3.17;;
17145;SDS011;8688;54.444;18.444;2023-08-01T12:26:32;3.67;;;2.53;;
17145;SDS011;8688;54.444;18.444;2023-08-01T12:29:00;3.90;;;2.60;;
17145;SDS011;8688;54.444;18.444;2023-08-01T12:31:27;3.63;;;2.50;;
17145;SDS011;8688;54.444;18.444;2023-08-01T12:33:55;3.33;;;2.70;;
17145;SDS011;8688;54.444;18.444;2023-08-01T12:36:23;4.00;;;2.97;;
17145;SDS011;8688;54.444;18.444;2023-08-01T12:38:51;5.60;;;3.33;;
17145;SDS011;8688;54.444;18.444;2023-08-01T12:41:20;4.50;;;3.33;;
17145;SDS011;8688;54.444;18.444;2023-08-01T12:43:47;4.65;;;3.40;;
17145;SDS011;8688;54.444;18.444;2023-08-01T12:46:15;5.35;;;3.78;;
17145;SDS011;8688;54.444;18.444;2023-08-01T12:48:43;4.57;;;3.88;;
17145;SDS011;8688;54.444;18.444;2023-08-01T12:51:11;5.35;;;4.10;;
17145;SDS011;8688;54.444;18.444;2023-08-01T12:53:39;5.97;;;4.32;;
17145;SDS011;8688;54.444;18.444;2023-08-01T12:56:07;7.38;;;4.72;;
17145;SDS011;8688;54.444;18.444;2023-08-01T12:58:36;5.93;;;4.70;;
17145;SDS011;8688;54.444;18.444;2023-08-01T13:01:04;7.80;;;5.20;;
17145;SDS011;8688;54.444;18.444;2023-08-01T13:03:32;7.43;;;5.10;;
17145;SDS011;8688;54.444;18.444;2023-08-01T13:06:00;6.47;;;5.22;;
17145;SDS011;8688;54.444;18.444;2023-08-01T13:08:28;6.75;;;5.03;;
17145;SDS011;8688;54.444;18.444;2023-08-01T13:10:55;6.40;;;4.80;;
17145;SDS011;8688;54.444;18.444;2023-08-01T13:13:24;6.80;;;5.30;;
17145;SDS011;8688;54.444;18.444;2023-08-01T13:15:55;7.85;;;4.82;;
17145;SDS011;8688;54.444;18.444;2023-08-01T13:18:26;5.78;;;4.93;;
17145;SDS011;8688;54.444;18.444;2023-08-01T13:20:53;6.45;;;4.43;;
17145;SDS011;8688;54.444;18.444;2023-08-01T13:23:22;5.53;;;4.15;;
17145;SDS011;8688;54.444;18.444;2023-08-01T13:25:50;5.47;;;4.15;;
17145;SDS011;8688;54.444;18.444;2023-08-01T13:28:17;4.40;;;3.55;;
17145;SDS011;8688;54.444;18.444;2023-08-01T13:30:45;5.43;;;4.28;;
17145;SDS011;8688;54.444;18.444;2023-08-01T13:33:14;5.68;;;3.55;;
17145;SDS011;8688;54.444;18.444;2023-08-01T13:35:43;3.88;;;3.47;;
17145;SDS011;8688;54.444;18.444;2023-08-01T13:38:12;4.38;;;3.28;;
17145;SDS011;8688;54.444;18.444;2023-08-01T13:40:42;3.60;;;3.13;;
17145;SDS011;8688;54.444;18.444;2023-08-01T13:43:10;5.88;;;3.45;;
17145;SDS011;8688;54.444;18.444;2023-08-01T13:45:37;3.28;;;2.97;;
17145;SDS011;8688;54.444;18.444;2023-08-01T13:48:05;3.95;;;2.72;;
17145;SDS011;8688;54.444;18.444;2023-08-01T13:50:34;3.75;;;2.90;;
17145;SDS011;8688;54.444;18.444;2023-08-01T13:53:03;4.93;;;3.38;;
17145;SDS011;8688;54.444;18.444;2023-08-01T13:55:32;4.63;;;3.30;;
17145;SDS011;8688;54.444;18.444;2023-08-01T13:58:00;6.32;;;3.25;;
17145;SDS011;8688;54.444;18.444;2023-08-01T14:00:27;4.93;;;3.10;;
17145;SDS011;8688;54.444;18.444;2023-08-01T14:02:55;4.78;;;3.42;;
17145;SDS011;8688;54.444;18.444;2023-08-01T14:05:24;3.97;;;3.45;;
17145;SDS011;8688;54.444;18.444;2023-08-01T14:07:53;5.93;;;3.92;;
17145;SDS011;8688;54.444;18.444;2023-08-01T14:10:22;4.40;;;3.90;;
17145;SDS011;8688;54.444;18.444;2023-08-01T14:12:49;4.40;;;3.50;;
17145;SDS011;8688;54.444;18.444;2023-08-01T14:15:16;4.63;;;3.53;;
17145;SDS011;8688;54.444;18.444;2023-08-01T14:17:44;4.88;;;3.90;;
17145;SDS011;8688;54.444;18.444;2023-08-01T14:20:12;4.97;;;4.10;;
17145;SDS011;8688;54.444;18.444;2023-08-01T14:22:41;5.57;;;3.95;;
17145;SDS011;8688;54.444;18.444;2023-08-01T14:25:10;5.47;;;4.22;;
17145;SDS011;8688;54.444;18.444;2023-08-01T14:27:38;4.07;;;3.55;;
17145;SDS011;8688;54.444;18.444;2023-08-01T14:30:06;5.57;;;4.03;;
17145;SDS011;8688;54.444;18.444;2023-08-01T14:32:36;5.18;;;4.10;;
17145;SDS011;8688;54.444;18.444;2023-08-01T14:35:05;4.95;;;4.45;;
17145;SDS011;8688;54.444;18.444;2023-08-01T14:37:33;7.32;;;4.55;;
17145;SDS011;8688;54.444;18.444;2023-08-01T14:40:00;5.70;;;4.35;;
17145;SDS011;8688;54.444;18.444;2023-08-01T14:42:31;6.30;;;5.07;;
17145;SDS011;8688;54.444;18.444;2023-08-01T14:44:59;6.13;;;4.85;;
17145;SDS011;8688;54.444;18.444;2023-08-01T14:47:28;6.72;;;4.63;;
17145;SDS011;8688;54.444;18.444;2023-08-01T14:49:57;6.95;;;4.20;;
17145;SDS011;8688;54.444;18.444;2023-08-01T14:52:24;4.93;;;4.00;;
17145;SDS011;8688;54.444;18.444;2023-08-01T14:54:52;5.70;;;4.10;;